sensor_id;sensor_type;location;lat;lon;timestamp;P1;durP1;ratioP1;P2;durP2;ratioP2
11608;SDS011;5860;52.018;8.536;2023-03-19T00:02:07;9.90;;;6.67;;
11608;SDS011;5860;52.018;8.536;2023-03-19T00:04:43;7.77;;;5.47;;
11608;SDS011;5860;52.018;8.536;2023-03-19T00:07:12;9.60;;;4.70;;
11608;SDS011;5860;52.018;8.536;2023-03-19T00:09:40;8.70;;;5.20;;
11608;SDS011;5860;52.018;8.536;2023-03-19T00:12:07;6.70;;;4.57;;
11608;SDS011;5860;52.018;8.536;2023-03-19T00:14:36;10.40;;;4.90;;
11608;SDS011;5860;52.018;8.536;2023-03-19T00:17:03;7.20;;;4.70;;
11608;SDS011;5860;52.018;8.536;2023-03-19T00:19:30;6.63;;;4.30;;
11608;SDS011;5860;52.018;8.536;2023-03-19T00:21:57;7.17;;;4.00;;
11608;SDS011;5860;52.018;8.536;2023-03-19T00:24:24;7.03;;;3.93;;
11608;SDS011;5860;52.018;8.536;2023-03-19T00:27:01;6.80;;;3.67;;
11608;SDS011;5860;52.018;8.536;2023-03-19T00:29:30;5.37;;;3.90;;
11608;SDS011;5860;52.018;8.536;2023-03-19T00:31:57;5.43;;;3.50;;
11608;SDS011;5860;52.018;8.536;2023-03-19T00:34:23;6.03;;;3.83;;
11608;SDS011;5860;52.018;8.536;2023-03-19T00:36:51;6.10;;;3.63;;
11608;SDS011;5860;52.018;8.536;2023-03-19T00:39:18;4.47;;;3.70;;
11608;SDS011;5860;52.018;8.536;2023-03-19T00:41:46;6.30;;;3.20;;
11608;SDS011;5860;52.018;8.536;2023-03-19T00:44:16;4.70;;;3.40;;
11608;SDS011;5860;52.018;8.536;2023-03-19T00:46:46;6.57;;;3.70;;
11608;SDS011;5860;52.018;8.536;2023-03-19T00:49:13;5.07;;;3.67;;
11608;SDS011;5860;52.018;8.536;2023-03-19T00:51:40;7.37;;;3.67;;
11608;SDS011;5860;52.018;8.536;2023-03-19T00:54:10;6.17;;;3.10;;
11608;SDS011;5860;52.018;8.536;2023-03-19T00:56:38;6.73;;;3.50;;
11608;SDS011;5860;52.018;8.536;2023-03-19T00:59:05;7.13;;;3.00;;
11608;SDS011;5860;52.018;8.536;2023-03-19T01:01:32;6.17;;;3.57;;
11608;SDS011;5860;52.018;8.536;2023-03-19T01:03:59;7.33;;;3.50;;
11608;SDS011;5860;52.018;8.536;2023-03-19T01:06:26;5.87;;;3.40;;
11608;SDS011;5860;52.018;8.536;2023-03-19T01:08:53;5.33;;;3.20;;
11608;SDS011;5860;52.018;8.536;2023-03-19T01:11:20;6.17;;;3.40;;
11608;SDS011;5860;52.018;8.536;2023-03-19T01:13:47;8.63;;;3.20;;
11608;SDS011;5860;52.018;8.536;2023-03-19T01:16:14;4.93;;;3.20;;
11608;SDS011;5860;52.018;8.536;2023-03-19T01:18:41;8.80;;;3.47;;
11608;SDS011;5860;52.018;8.536;2023-03-19T01:21:08;6.80;;;3.23;;
11608;SDS011;5860;52.018;8.536;2023-03-19T01:23:35;5.67;;;3.23;;
11608;SDS011;5860;52.018;8.536;2023-03-19T01:26:02;6.13;;;3.40;;
11608;SDS011;5860;52.018;8.536;2023-03-19T01:28:30;8.83;;;3.20;;
11608;SDS011;5860;52.018;8.536;2023-03-19T01:30:58;6.63;;;3.00;;
11608;SDS011;5860;52.018;8.536;2023-03-19T01:33:31;4.43;;;3.20;;
11608;SDS011;5860;52.018;8.536;2023-03-19T01:35:59;6.70;;;3.23;;
11608;SDS011;5860;52.018;8.536;2023-03-19T01:38:29;6.07;;;2.80;;
11608;SDS011;5860;52.018;8.536;2023-03-19T01:40:56;4.83;;;3.10;;
11608;SDS011;5860;52.018;8.536;2023-03-19T01:43:24;6.37;;;3.10;;
11608;SDS011;5860;52.018;8.536;2023-03-19T01:45:56;4.77;;;3.10;;
11608;SDS011;5860;52.018;8.536;2023-03-19T01:51:06;7.13;;;3.37;;
11608;SDS011;5860;52.018;8.536;2023-03-19T01:53:36;7.20;;;3.33;;
11608;SDS011;5860;52.018;8.536;2023-03-19T01:59:03;7.27;;;3.20;;
11608;SDS011;5860;52.018;8.536;2023-03-19T02:01:48;5.43;;;3.23;;
11608;SDS011;5860;52.018;8.536;2023-03-19T02:04:24;4.87;;;3.00;;
11608;SDS011;5860;52.018;8.536;2023-03-19T02:06:55;7.17;;;2.90;;
11608;SDS011;5860;52.018;8.536;2023-03-19T02:09:23;3.10;;;2.60;;
11608;SDS011;5860;52.018;8.536;2023-03-19T02:11:52;3.90;;;2.47;;
11608;SDS011;5860;52.018;8.536;2023-03-19T02:14:20;4.13;;;2.77;;
11608;SDS011;5860;52.018;8.536;2023-03-19T02:16:50;4.57;;;2.73;;
11608;SDS011;5860;52.018;8.536;2023-03-19T02:22:16;8.23;;;3.00;;
11608;SDS011;5860;52.018;8.536;2023-03-19T02:27:16;3.70;;;2.70;;
11608;SDS011;5860;52.018;8.536;2023-03-19T02:29:43;6.90;;;2.83;;
11608;SDS011;5860;52.018;8.536;2023-03-19T02:32:11;3.73;;;2.53;;
11608;SDS011;5860;52.018;8.536;2023-03-19T02:34:39;5.80;;;2.60;;
11608;SDS011;5860;52.018;8.536;2023-03-19T02:37:09;5.13;;;3.20;;
11608;SDS011;5860;52.018;8.536;2023-03-19T02:42:15;8.00;;;3.37;;
11608;SDS011;5860;52.018;8.536;2023-03-19T02:44:44;7.07;;;2.87;;
11608;SDS011;5860;52.018;8.536;2023-03-19T02:47:11;5.47;;;2.90;;
11608;SDS011;5860;52.018;8.536;2023-03-19T02:49:39;6.33;;;3.10;;
11608;SDS011;5860;52.018;8.536;2023-03-19T02:52:06;6.00;;;2.70;;
11608;SDS011;5860;52.018;8.536;2023-03-19T02:54:36;4.83;;;2.70;;
11608;SDS011;5860;52.018;8.536;2023-03-19T02:57:03;3.93;;;2.60;;
11608;SDS011;5860;52.018;8.536;2023-03-19T02:59:30;6.50;;;2.90;;
11608;SDS011;5860;52.018;8.536;2023-03-19T03:01:57;5.53;;;2.43;;
11608;SDS011;5860;52.018;8.536;2023-03-19T03:04:25;5.77;;;2.37;;
11608;SDS011;5860;52.018;8.536;2023-03-19T03:06:52;5.57;;;2.30;;
11608;SDS011;5860;52.018;8.536;2023-03-19T03:09:19;4.00;;;2.10;;
11608;SDS011;5860;52.018;8.536;2023-03-19T03:11:46;5.13;;;2.60;;
11608;SDS011;5860;52.018;8.536;2023-03-19T03:14:13;4.87;;;2.70;;
11608;SDS011;5860;52.018;8.536;2023-03-19T03:16:43;6.70;;;2.80;;
11608;SDS011;5860;52.018;8.536;2023-03-19T03:19:11;4.23;;;2.43;;
11608;SDS011;5860;52.018;8.536;2023-03-19T03:21:38;4.33;;;2.37;;
11608;SDS011;5860;52.018;8.536;2023-03-19T03:24:06;4.97;;;2.83;;
11608;SDS011;5860;52.018;8.536;2023-03-19T03:26:50;5.70;;;2.50;;
11608;SDS011;5860;52.018;8.536;2023-03-19T03:29:16;6.17;;;2.70;;
11608;SDS011;5860;52.018;8.536;2023-03-19T03:31:43;5.23;;;2.63;;
11608;SDS011;5860;52.018;8.536;2023-03-19T03:34:10;5.00;;;2.53;;
11608;SDS011;5860;52.018;8.536;2023-03-19T03:36:37;5.37;;;2.50;;
11608;SDS011;5860;52.018;8.536;2023-03-19T03:39:07;4.53;;;2.20;;
11608;SDS011;5860;52.018;8.536;2023-03-19T03:41:37;4.83;;;2.60;;
11608;SDS011;5860;52.018;8.536;2023-03-19T03:44:04;4.77;;;2.53;;
11608;SDS011;5860;52.018;8.536;2023-03-19T03:46:31;6.07;;;2.80;;
11608;SDS011;5860;52.018;8.536;2023-03-19T03:48:58;5.17;;;2.53;;
11608;SDS011;5860;52.018;8.536;2023-03-19T03:51:25;5.63;;;2.77;;
11608;SDS011;5860;52.018;8.536;2023-03-19T03:53:51;3.07;;;2.47;;
11608;SDS011;5860;52.018;8.536;2023-03-19T03:56:18;4.27;;;2.60;;
11608;SDS011;5860;52.018;8.536;2023-03-19T03:58:46;4.27;;;2.50;;
11608;SDS011;5860;52.018;8.536;2023-03-19T04:01:13;6.67;;;2.80;;
11608;SDS011;5860;52.018;8.536;2023-03-19T04:03:42;6.17;;;2.90;;
11608;SDS011;5860;52.018;8.536;2023-03-19T04:06:12;7.03;;;2.83;;
11608;SDS011;5860;52.018;8.536;2023-03-19T04:08:42;6.50;;;2.80;;
11608;SDS011;5860;52.018;8.536;2023-03-19T04:11:09;6.50;;;2.47;;
11608;SDS011;5860;52.018;8.536;2023-03-19T04:13:36;4.43;;;2.50;;
11608;SDS011;5860;52.018;8.536;2023-03-19T04:16:03;4.30;;;2.70;;
11608;SDS011;5860;52.018;8.536;2023-03-19T04:18:35;4.43;;;2.33;;
11608;SDS011;5860;52.018;8.536;2023-03-19T04:21:05;4.87;;;3.07;;
11608;SDS011;5860;52.018;8.536;2023-03-19T04:23:33;5.73;;;2.53;;
11608;SDS011;5860;52.018;8.536;2023-03-19T04:26:00;4.00;;;2.43;;
11608;SDS011;5860;52.018;8.536;2023-03-19T04:28:29;4.77;;;2.27;;
11608;SDS011;5860;52.018;8.536;2023-03-19T04:31:03;4.77;;;2.60;;
11608;SDS011;5860;52.018;8.536;2023-03-19T04:33:32;7.67;;;2.70;;
11608;SDS011;5860;52.018;8.536;2023-03-19T04:35:59;4.90;;;3.00;;
11608;SDS011;5860;52.018;8.536;2023-03-19T04:38:26;5.20;;;2.30;;
11608;SDS011;5860;52.018;8.536;2023-03-19T04:40:54;5.17;;;2.50;;
11608;SDS011;5860;52.018;8.536;2023-03-19T04:43:21;3.53;;;2.50;;
11608;SDS011;5860;52.018;8.536;2023-03-19T04:45:49;6.27;;;2.97;;
11608;SDS011;5860;52.018;8.536;2023-03-19T04:48:16;5.90;;;2.50;;
11608;SDS011;5860;52.018;8.536;2023-03-19T04:50:44;7.67;;;2.90;;
11608;SDS011;5860;52.018;8.536;2023-03-19T04:53:12;5.63;;;2.87;;
11608;SDS011;5860;52.018;8.536;2023-03-19T04:55:39;5.07;;;3.10;;
11608;SDS011;5860;52.018;8.536;2023-03-19T04:58:06;7.27;;;3.10;;
11608;SDS011;5860;52.018;8.536;2023-03-19T05:00:34;7.10;;;3.40;;
11608;SDS011;5860;52.018;8.536;2023-03-19T05:03:01;3.77;;;2.80;;
11608;SDS011;5860;52.018;8.536;2023-03-19T05:05:28;9.20;;;3.10;;
11608;SDS011;5860;52.018;8.536;2023-03-19T05:07:56;5.27;;;2.60;;
11608;SDS011;5860;52.018;8.536;2023-03-19T05:10:23;6.23;;;2.87;;
11608;SDS011;5860;52.018;8.536;2023-03-19T05:12:50;3.97;;;2.87;;
11608;SDS011;5860;52.018;8.536;2023-03-19T05:15:16;7.90;;;3.00;;
11608;SDS011;5860;52.018;8.536;2023-03-19T05:17:43;5.47;;;2.90;;
11608;SDS011;5860;52.018;8.536;2023-03-19T05:20:10;5.20;;;2.83;;
11608;SDS011;5860;52.018;8.536;2023-03-19T05:22:38;9.30;;;2.77;;
11608;SDS011;5860;52.018;8.536;2023-03-19T05:25:05;3.80;;;2.30;;
11608;SDS011;5860;52.018;8.536;2023-03-19T05:27:32;5.80;;;2.93;;
11608;SDS011;5860;52.018;8.536;2023-03-19T05:29:59;5.57;;;2.70;;
11608;SDS011;5860;52.018;8.536;2023-03-19T05:32:51;5.77;;;2.83;;
11608;SDS011;5860;52.018;8.536;2023-03-19T05:35:17;3.57;;;2.70;;
11608;SDS011;5860;52.018;8.536;2023-03-19T05:38:08;7.60;;;3.07;;
11608;SDS011;5860;52.018;8.536;2023-03-19T05:40:36;6.70;;;2.90;;
11608;SDS011;5860;52.018;8.536;2023-03-19T05:43:03;7.27;;;3.07;;
11608;SDS011;5860;52.018;8.536;2023-03-19T05:45:49;5.33;;;3.20;;
11608;SDS011;5860;52.018;8.536;2023-03-19T05:48:22;4.67;;;2.67;;
11608;SDS011;5860;52.018;8.536;2023-03-19T05:50:49;6.27;;;3.10;;
11608;SDS011;5860;52.018;8.536;2023-03-19T05:53:18;5.03;;;2.73;;
11608;SDS011;5860;52.018;8.536;2023-03-19T05:55:45;7.40;;;3.30;;
11608;SDS011;5860;52.018;8.536;2023-03-19T05:58:12;8.53;;;3.00;;
11608;SDS011;5860;52.018;8.536;2023-03-19T06:00:47;4.87;;;2.80;;
11608;SDS011;5860;52.018;8.536;2023-03-19T06:03:14;5.60;;;2.83;;
11608;SDS011;5860;52.018;8.536;2023-03-19T06:05:41;5.90;;;2.63;;
11608;SDS011;5860;52.018;8.536;2023-03-19T06:08:08;3.27;;;2.40;;
11608;SDS011;5860;52.018;8.536;2023-03-19T06:10:35;3.60;;;2.30;;
11608;SDS011;5860;52.018;8.536;2023-03-19T06:13:02;8.50;;;2.67;;
11608;SDS011;5860;52.018;8.536;2023-03-19T06:15:30;5.20;;;2.53;;
11608;SDS011;5860;52.018;8.536;2023-03-19T06:18:00;7.23;;;2.97;;
11608;SDS011;5860;52.018;8.536;2023-03-19T06:20:27;5.63;;;3.00;;
11608;SDS011;5860;52.018;8.536;2023-03-19T06:22:54;6.87;;;2.50;;
11608;SDS011;5860;52.018;8.536;2023-03-19T06:25:32;5.17;;;2.50;;
11608;SDS011;5860;52.018;8.536;2023-03-19T06:27:59;6.33;;;2.60;;
11608;SDS011;5860;52.018;8.536;2023-03-19T06:30:26;6.73;;;2.30;;
11608;SDS011;5860;52.018;8.536;2023-03-19T06:32:53;3.70;;;2.53;;
11608;SDS011;5860;52.018;8.536;2023-03-19T06:35:21;5.40;;;2.63;;
11608;SDS011;5860;52.018;8.536;2023-03-19T06:37:49;4.40;;;2.20;;
11608;SDS011;5860;52.018;8.536;2023-03-19T06:40:16;5.23;;;2.07;;
11608;SDS011;5860;52.018;8.536;2023-03-19T06:42:44;5.40;;;2.03;;
11608;SDS011;5860;52.018;8.536;2023-03-19T06:45:14;3.07;;;1.77;;
11608;SDS011;5860;52.018;8.536;2023-03-19T06:47:44;4.20;;;1.90;;
11608;SDS011;5860;52.018;8.536;2023-03-19T06:50:13;2.63;;;2.03;;
11608;SDS011;5860;52.018;8.536;2023-03-19T06:52:41;3.70;;;2.20;;
11608;SDS011;5860;52.018;8.536;2023-03-19T06:55:09;5.03;;;2.00;;
11608;SDS011;5860;52.018;8.536;2023-03-19T06:57:37;4.47;;;1.50;;
11608;SDS011;5860;52.018;8.536;2023-03-19T07:00:05;7.00;;;1.80;;
11608;SDS011;5860;52.018;8.536;2023-03-19T07:02:35;3.70;;;1.57;;
11608;SDS011;5860;52.018;8.536;2023-03-19T07:05:02;5.67;;;1.90;;
11608;SDS011;5860;52.018;8.536;2023-03-19T07:07:30;3.03;;;1.50;;
11608;SDS011;5860;52.018;8.536;2023-03-19T07:09:57;3.37;;;2.03;;
11608;SDS011;5860;52.018;8.536;2023-03-19T07:12:24;4.83;;;1.90;;
11608;SDS011;5860;52.018;8.536;2023-03-19T07:14:54;5.23;;;1.73;;
11608;SDS011;5860;52.018;8.536;2023-03-19T07:17:22;4.40;;;1.83;;
11608;SDS011;5860;52.018;8.536;2023-03-19T07:19:49;2.53;;;1.53;;
11608;SDS011;5860;52.018;8.536;2023-03-19T07:22:16;3.30;;;1.60;;
11608;SDS011;5860;52.018;8.536;2023-03-19T07:24:43;5.10;;;1.60;;
11608;SDS011;5860;52.018;8.536;2023-03-19T07:27:10;4.13;;;1.70;;
11608;SDS011;5860;52.018;8.536;2023-03-19T07:29:37;3.17;;;1.80;;
11608;SDS011;5860;52.018;8.536;2023-03-19T07:32:05;4.93;;;1.80;;
11608;SDS011;5860;52.018;8.536;2023-03-19T07:34:32;2.23;;;1.53;;
11608;SDS011;5860;52.018;8.536;2023-03-19T07:37:00;2.70;;;1.80;;
11608;SDS011;5860;52.018;8.536;2023-03-19T07:39:26;6.00;;;1.93;;
11608;SDS011;5860;52.018;8.536;2023-03-19T07:41:53;5.40;;;1.90;;
11608;SDS011;5860;52.018;8.536;2023-03-19T07:44:24;5.87;;;2.13;;
11608;SDS011;5860;52.018;8.536;2023-03-19T07:46:51;4.37;;;2.23;;
11608;SDS011;5860;52.018;8.536;2023-03-19T07:49:17;3.57;;;1.60;;
11608;SDS011;5860;52.018;8.536;2023-03-19T07:51:45;4.50;;;1.90;;
11608;SDS011;5860;52.018;8.536;2023-03-19T07:54:12;3.90;;;1.80;;
11608;SDS011;5860;52.018;8.536;2023-03-19T07:56:39;5.13;;;2.10;;
11608;SDS011;5860;52.018;8.536;2023-03-19T07:59:08;3.97;;;2.17;;
11608;SDS011;5860;52.018;8.536;2023-03-19T08:01:35;4.10;;;2.00;;
11608;SDS011;5860;52.018;8.536;2023-03-19T08:04:02;3.77;;;2.40;;
11608;SDS011;5860;52.018;8.536;2023-03-19T08:06:29;4.17;;;2.53;;
11608;SDS011;5860;52.018;8.536;2023-03-19T08:08:56;5.57;;;2.50;;
11608;SDS011;5860;52.018;8.536;2023-03-19T08:11:23;5.60;;;2.27;;
11608;SDS011;5860;52.018;8.536;2023-03-19T08:13:50;3.37;;;2.23;;
11608;SDS011;5860;52.018;8.536;2023-03-19T08:16:17;5.47;;;2.30;;
11608;SDS011;5860;52.018;8.536;2023-03-19T08:18:44;5.33;;;2.60;;
11608;SDS011;5860;52.018;8.536;2023-03-19T08:21:21;5.97;;;2.73;;
11608;SDS011;5860;52.018;8.536;2023-03-19T08:24:35;14.37;;;2.83;;
11608;SDS011;5860;52.018;8.536;2023-03-19T08:27:10;4.43;;;3.53;;
11608;SDS011;5860;52.018;8.536;2023-03-19T08:29:39;6.47;;;2.80;;
11608;SDS011;5860;52.018;8.536;2023-03-19T08:32:06;4.73;;;2.60;;
11608;SDS011;5860;52.018;8.536;2023-03-19T08:35:03;4.47;;;2.57;;
11608;SDS011;5860;52.018;8.536;2023-03-19T08:37:33;5.93;;;3.30;;
11608;SDS011;5860;52.018;8.536;2023-03-19T08:40:00;6.30;;;3.50;;
11608;SDS011;5860;52.018;8.536;2023-03-19T08:42:28;4.13;;;3.00;;
11608;SDS011;5860;52.018;8.536;2023-03-19T08:44:55;4.20;;;3.10;;
11608;SDS011;5860;52.018;8.536;2023-03-19T08:47:22;4.53;;;2.87;;
11608;SDS011;5860;52.018;8.536;2023-03-19T08:56:28;7.70;;;3.40;;
11608;SDS011;5860;52.018;8.536;2023-03-19T08:58:56;5.37;;;3.10;;
11608;SDS011;5860;52.018;8.536;2023-03-19T09:01:23;4.60;;;3.10;;
11608;SDS011;5860;52.018;8.536;2023-03-19T09:03:50;5.83;;;3.07;;
11608;SDS011;5860;52.018;8.536;2023-03-19T09:06:17;6.27;;;3.07;;
11608;SDS011;5860;52.018;8.536;2023-03-19T09:08:44;4.93;;;2.83;;
11608;SDS011;5860;52.018;8.536;2023-03-19T09:11:11;4.57;;;2.63;;
11608;SDS011;5860;52.018;8.536;2023-03-19T09:13:40;4.93;;;3.03;;
11608;SDS011;5860;52.018;8.536;2023-03-19T09:16:06;7.37;;;3.00;;
11608;SDS011;5860;52.018;8.536;2023-03-19T09:18:34;4.43;;;2.83;;
11608;SDS011;5860;52.018;8.536;2023-03-19T09:21:01;3.60;;;2.60;;
11608;SDS011;5860;52.018;8.536;2023-03-19T09:23:28;5.27;;;2.43;;
11608;SDS011;5860;52.018;8.536;2023-03-19T09:25:55;5.13;;;2.90;;
11608;SDS011;5860;52.018;8.536;2023-03-19T09:28:25;5.63;;;3.20;;
11608;SDS011;5860;52.018;8.536;2023-03-19T09:30:52;4.00;;;3.40;;
11608;SDS011;5860;52.018;8.536;2023-03-19T09:33:19;5.17;;;3.37;;
11608;SDS011;5860;52.018;8.536;2023-03-19T09:35:50;4.00;;;2.90;;
11608;SDS011;5860;52.018;8.536;2023-03-19T09:38:19;4.47;;;3.00;;
11608;SDS011;5860;52.018;8.536;2023-03-19T09:41:00;4.77;;;3.00;;
11608;SDS011;5860;52.018;8.536;2023-03-19T09:46:24;3.80;;;2.90;;
11608;SDS011;5860;52.018;8.536;2023-03-19T09:51:49;4.00;;;2.90;;
11608;SDS011;5860;52.018;8.536;2023-03-19T09:54:30;3.67;;;2.60;;
11608;SDS011;5860;52.018;8.536;2023-03-19T09:57:08;5.03;;;2.70;;
11608;SDS011;5860;52.018;8.536;2023-03-19T09:59:40;4.37;;;2.90;;
11608;SDS011;5860;52.018;8.536;2023-03-19T10:04:41;5.33;;;2.90;;
11608;SDS011;5860;52.018;8.536;2023-03-19T10:07:32;5.33;;;3.00;;
11608;SDS011;5860;52.018;8.536;2023-03-19T10:10:17;4.73;;;3.20;;
11608;SDS011;5860;52.018;8.536;2023-03-19T10:13:15;4.50;;;3.00;;
11608;SDS011;5860;52.018;8.536;2023-03-19T10:15:44;4.17;;;2.87;;
11608;SDS011;5860;52.018;8.536;2023-03-19T10:18:15;4.63;;;3.63;;
11608;SDS011;5860;52.018;8.536;2023-03-19T10:25:56;4.27;;;3.20;;
11608;SDS011;5860;52.018;8.536;2023-03-19T10:28:26;4.67;;;3.50;;
11608;SDS011;5860;52.018;8.536;2023-03-19T10:33:33;4.40;;;3.73;;
11608;SDS011;5860;52.018;8.536;2023-03-19T10:36:11;4.80;;;3.83;;
11608;SDS011;5860;52.018;8.536;2023-03-19T10:38:41;4.93;;;4.40;;
11608;SDS011;5860;52.018;8.536;2023-03-19T10:43:53;5.47;;;4.47;;
11608;SDS011;5860;52.018;8.536;2023-03-19T10:46:23;5.23;;;4.20;;
11608;SDS011;5860;52.018;8.536;2023-03-19T10:48:51;7.87;;;4.30;;
11608;SDS011;5860;52.018;8.536;2023-03-19T10:51:20;5.70;;;4.80;;
11608;SDS011;5860;52.018;8.536;2023-03-19T10:53:51;7.97;;;5.00;;
11608;SDS011;5860;52.018;8.536;2023-03-19T10:56:20;5.23;;;4.57;;
11608;SDS011;5860;52.018;8.536;2023-03-19T11:01:35;5.43;;;4.43;;
11608;SDS011;5860;52.018;8.536;2023-03-19T11:04:12;5.40;;;4.27;;
11608;SDS011;5860;52.018;8.536;2023-03-19T11:06:48;6.83;;;4.83;;
11608;SDS011;5860;52.018;8.536;2023-03-19T11:09:20;6.63;;;4.43;;
11608;SDS011;5860;52.018;8.536;2023-03-19T11:11:56;6.33;;;4.40;;
11608;SDS011;5860;52.018;8.536;2023-03-19T11:14:33;5.47;;;4.40;;
11608;SDS011;5860;52.018;8.536;2023-03-19T11:20:04;5.97;;;3.60;;
11608;SDS011;5860;52.018;8.536;2023-03-19T11:22:53;5.60;;;3.90;;
11608;SDS011;5860;52.018;8.536;2023-03-19T11:25:28;5.63;;;3.93;;
11608;SDS011;5860;52.018;8.536;2023-03-19T11:27:57;4.63;;;4.13;;
11608;SDS011;5860;52.018;8.536;2023-03-19T11:30:32;5.73;;;3.93;;
11608;SDS011;5860;52.018;8.536;2023-03-19T11:36:20;4.70;;;3.80;;
11608;SDS011;5860;52.018;8.536;2023-03-19T11:44:46;6.43;;;4.93;;
11608;SDS011;5860;52.018;8.536;2023-03-19T11:47:27;6.57;;;5.70;;
11608;SDS011;5860;52.018;8.536;2023-03-19T12:00:52;6.03;;;4.47;;
11608;SDS011;5860;52.018;8.536;2023-03-19T12:06:13;4.30;;;3.80;;
11608;SDS011;5860;52.018;8.536;2023-03-19T12:09:03;5.20;;;3.80;;
11608;SDS011;5860;52.018;8.536;2023-03-19T12:17:28;4.63;;;3.40;;
11608;SDS011;5860;52.018;8.536;2023-03-19T12:28:17;5.87;;;4.40;;
11608;SDS011;5860;52.018;8.536;2023-03-19T12:36:07;4.80;;;4.30;;
11608;SDS011;5860;52.018;8.536;2023-03-19T12:38:43;4.77;;;4.37;;
11608;SDS011;5860;52.018;8.536;2023-03-19T12:41:23;4.73;;;4.33;;
11608;SDS011;5860;52.018;8.536;2023-03-19T12:44:00;4.80;;;4.30;;
11608;SDS011;5860;52.018;8.536;2023-03-19T12:46:56;7.13;;;4.83;;
11608;SDS011;5860;52.018;8.536;2023-03-19T12:49:27;6.90;;;5.90;;
11608;SDS011;5860;52.018;8.536;2023-03-19T12:52:07;5.93;;;5.33;;
11608;SDS011;5860;52.018;8.536;2023-03-19T12:54:48;6.17;;;5.37;;
11608;SDS011;5860;52.018;8.536;2023-03-19T12:57:52;7.47;;;5.63;;
11608;SDS011;5860;52.018;8.536;2023-03-19T13:00:27;7.07;;;5.13;;
11608;SDS011;5860;52.018;8.536;2023-03-19T13:06:07;7.90;;;5.60;;
11608;SDS011;5860;52.018;8.536;2023-03-19T13:08:55;6.60;;;5.43;;
11608;SDS011;5860;52.018;8.536;2023-03-19T13:22:54;7.83;;;6.60;;
11608;SDS011;5860;52.018;8.536;2023-03-19T13:25:26;6.93;;;6.33;;
11608;SDS011;5860;52.018;8.536;2023-03-19T13:28:11;6.97;;;6.27;;
11608;SDS011;5860;52.018;8.536;2023-03-19T13:33:27;9.63;;;7.20;;
11608;SDS011;5860;52.018;8.536;2023-03-19T13:35:55;6.60;;;6.00;;
11608;SDS011;5860;52.018;8.536;2023-03-19T13:40:57;7.27;;;6.57;;
11608;SDS011;5860;52.018;8.536;2023-03-19T13:51:55;6.00;;;5.50;;
11608;SDS011;5860;52.018;8.536;2023-03-19T13:54:40;7.50;;;6.03;;
11608;SDS011;5860;52.018;8.536;2023-03-19T14:00:57;6.83;;;6.13;;
11608;SDS011;5860;52.018;8.536;2023-03-19T14:04:13;8.30;;;6.67;;
11608;SDS011;5860;52.018;8.536;2023-03-19T14:12:34;7.60;;;6.07;;
11608;SDS011;5860;52.018;8.536;2023-03-19T14:17:36;8.53;;;6.07;;
11608;SDS011;5860;52.018;8.536;2023-03-19T14:28:17;8.93;;;7.17;;
11608;SDS011;5860;52.018;8.536;2023-03-19T14:30:48;8.83;;;7.10;;
11608;SDS011;5860;52.018;8.536;2023-03-19T14:33:38;8.17;;;7.30;;
11608;SDS011;5860;52.018;8.536;2023-03-19T14:36:16;8.30;;;7.10;;
11608;SDS011;5860;52.018;8.536;2023-03-19T14:38:52;8.67;;;7.30;;
11608;SDS011;5860;52.018;8.536;2023-03-19T14:41:31;6.93;;;6.13;;
11608;SDS011;5860;52.018;8.536;2023-03-19T14:49:27;8.33;;;6.53;;
11608;SDS011;5860;52.018;8.536;2023-03-19T14:52:29;7.63;;;6.30;;
11608;SDS011;5860;52.018;8.536;2023-03-19T14:55:09;7.53;;;6.27;;
11608;SDS011;5860;52.018;8.536;2023-03-19T14:57:39;7.87;;;5.50;;
11608;SDS011;5860;52.018;8.536;2023-03-19T15:00:10;7.33;;;5.83;;
11608;SDS011;5860;52.018;8.536;2023-03-19T15:05:14;7.60;;;6.43;;
11608;SDS011;5860;52.018;8.536;2023-03-19T15:07:48;6.33;;;5.60;;
11608;SDS011;5860;52.018;8.536;2023-03-19T15:10:19;7.30;;;5.30;;
11608;SDS011;5860;52.018;8.536;2023-03-19T15:15:48;9.47;;;5.13;;
11608;SDS011;5860;52.018;8.536;2023-03-19T15:18:38;5.60;;;5.10;;
11608;SDS011;5860;52.018;8.536;2023-03-19T15:21:04;8.50;;;6.13;;
11608;SDS011;5860;52.018;8.536;2023-03-19T15:23:32;6.40;;;5.80;;
11608;SDS011;5860;52.018;8.536;2023-03-19T15:26:00;6.37;;;5.40;;
11608;SDS011;5860;52.018;8.536;2023-03-19T15:28:29;7.03;;;5.27;;
11608;SDS011;5860;52.018;8.536;2023-03-19T15:31:04;5.50;;;4.90;;
11608;SDS011;5860;52.018;8.536;2023-03-19T15:33:51;5.80;;;3.83;;
11608;SDS011;5860;52.018;8.536;2023-03-19T15:36:23;4.80;;;3.87;;
11608;SDS011;5860;52.018;8.536;2023-03-19T15:39:00;4.03;;;2.50;;
11608;SDS011;5860;52.018;8.536;2023-03-19T15:41:35;2.30;;;1.80;;
11608;SDS011;5860;52.018;8.536;2023-03-19T15:44:07;3.27;;;2.00;;
11608;SDS011;5860;52.018;8.536;2023-03-19T15:46:38;2.70;;;2.17;;
11608;SDS011;5860;52.018;8.536;2023-03-19T15:49:09;3.60;;;2.50;;
11608;SDS011;5860;52.018;8.536;2023-03-19T15:51:43;3.63;;;2.73;;
11608;SDS011;5860;52.018;8.536;2023-03-19T15:54:16;3.63;;;2.90;;
11608;SDS011;5860;52.018;8.536;2023-03-19T15:56:46;4.37;;;3.53;;
11608;SDS011;5860;52.018;8.536;2023-03-19T15:59:15;4.17;;;3.40;;
11608;SDS011;5860;52.018;8.536;2023-03-19T16:01:45;4.70;;;3.80;;
11608;SDS011;5860;52.018;8.536;2023-03-19T16:04:16;5.13;;;3.70;;
11608;SDS011;5860;52.018;8.536;2023-03-19T16:06:48;3.70;;;3.40;;
11608;SDS011;5860;52.018;8.536;2023-03-19T16:11:55;5.43;;;3.63;;
11608;SDS011;5860;52.018;8.536;2023-03-19T16:16:57;4.27;;;3.87;;
11608;SDS011;5860;52.018;8.536;2023-03-19T16:19:35;4.10;;;3.47;;
11608;SDS011;5860;52.018;8.536;2023-03-19T16:22:12;3.87;;;2.80;;
11608;SDS011;5860;52.018;8.536;2023-03-19T16:24:42;3.40;;;3.10;;
11608;SDS011;5860;52.018;8.536;2023-03-19T16:27:12;3.00;;;2.43;;
11608;SDS011;5860;52.018;8.536;2023-03-19T16:29:45;4.50;;;2.80;;
11608;SDS011;5860;52.018;8.536;2023-03-19T16:32:21;3.83;;;2.43;;
11608;SDS011;5860;52.018;8.536;2023-03-19T16:35:31;2.60;;;2.20;;
11608;SDS011;5860;52.018;8.536;2023-03-19T16:37:52;3.20;;;2.50;;
11608;SDS011;5860;52.018;8.536;2023-03-19T16:42:47;4.03;;;3.00;;
11608;SDS011;5860;52.018;8.536;2023-03-19T16:45:26;5.43;;;4.47;;
11608;SDS011;5860;52.018;8.536;2023-03-19T16:47:57;5.77;;;4.50;;
11608;SDS011;5860;52.018;8.536;2023-03-19T16:50:27;4.40;;;3.13;;
11608;SDS011;5860;52.018;8.536;2023-03-19T16:52:57;6.40;;;3.87;;
11608;SDS011;5860;52.018;8.536;2023-03-19T16:55:26;4.53;;;3.57;;
11608;SDS011;5860;52.018;8.536;2023-03-19T16:57:58;5.87;;;4.53;;
11608;SDS011;5860;52.018;8.536;2023-03-19T17:00:47;7.37;;;4.13;;
11608;SDS011;5860;52.018;8.536;2023-03-19T17:03:14;4.87;;;3.73;;
11608;SDS011;5860;52.018;8.536;2023-03-19T17:05:43;5.77;;;3.70;;
11608;SDS011;5860;52.018;8.536;2023-03-19T17:08:11;5.20;;;3.83;;
11608;SDS011;5860;52.018;8.536;2023-03-19T17:10:40;4.57;;;3.97;;
11608;SDS011;5860;52.018;8.536;2023-03-19T17:13:17;4.20;;;3.37;;
11608;SDS011;5860;52.018;8.536;2023-03-19T17:15:59;4.10;;;3.60;;
11608;SDS011;5860;52.018;8.536;2023-03-19T17:18:35;6.60;;;4.70;;
11608;SDS011;5860;52.018;8.536;2023-03-19T17:23:46;5.40;;;4.23;;
11608;SDS011;5860;52.018;8.536;2023-03-19T17:26:18;8.83;;;6.73;;
11608;SDS011;5860;52.018;8.536;2023-03-19T17:28:53;5.40;;;4.50;;
11608;SDS011;5860;52.018;8.536;2023-03-19T17:33:57;5.97;;;4.70;;
11608;SDS011;5860;52.018;8.536;2023-03-19T17:36:26;5.33;;;4.70;;
11608;SDS011;5860;52.018;8.536;2023-03-19T17:38:53;6.30;;;5.07;;
11608;SDS011;5860;52.018;8.536;2023-03-19T17:41:21;6.73;;;4.77;;
11608;SDS011;5860;52.018;8.536;2023-03-19T17:43:48;6.70;;;5.43;;
11608;SDS011;5860;52.018;8.536;2023-03-19T17:46:22;6.50;;;5.83;;
11608;SDS011;5860;52.018;8.536;2023-03-19T17:48:51;6.00;;;5.40;;
11608;SDS011;5860;52.018;8.536;2023-03-19T17:51:19;7.60;;;5.90;;
11608;SDS011;5860;52.018;8.536;2023-03-19T17:53:49;7.80;;;5.33;;
11608;SDS011;5860;52.018;8.536;2023-03-19T17:56:18;7.73;;;6.07;;
11608;SDS011;5860;52.018;8.536;2023-03-19T17:58:47;8.63;;;6.63;;
11608;SDS011;5860;52.018;8.536;2023-03-19T18:01:21;8.30;;;6.03;;
11608;SDS011;5860;52.018;8.536;2023-03-19T18:03:50;7.77;;;6.13;;